createdAt,value
2019-06-20T00:00:28.037Z,40.37
2019-06-20T00:01:33.044Z,39.93
2019-06-20T00:02:37.554Z,44.37
2019-06-20T00:03:42.576Z,45.60
2019-06-20T00:04:46.937Z,45.17
2019-06-20T00:05:52.044Z,47.10
2019-06-20T00:06:56.534Z,48.60
2019-06-20T00:08:01.560Z,37.40
2019-06-20T00:09:08.011Z,36.60
2019-06-20T00:10:13.383Z,33.87
2019-06-20T00:11:17.785Z,37.67
2019-06-20T00:12:22.769Z,38.20
2019-06-20T00:13:27.126Z,32.70
2019-06-20T00:14:32.093Z,29.33
2019-06-20T00:15:38.303Z,31.53
2019-06-20T00:16:43.271Z,25.77
2019-06-20T00:17:47.732Z,28.60
2019-06-20T00:18:52.644Z,28.03
2019-06-20T00:19:57.020Z,26.67
2019-06-20T00:21:02.048Z,25.77
2019-06-20T00:22:06.461Z,22.37
2019-06-20T00:23:11.418Z,25.33
2019-06-20T00:24:15.751Z,22.20
2019-06-20T00:25:20.812Z,22.97
2019-06-20T00:26:25.140Z,20.57
2019-06-20T00:27:30.109Z,21.63
2019-06-20T00:28:34.464Z,23.90
2019-06-20T00:29:39.453Z,25.27
2019-06-20T00:30:43.850Z,26.37
2019-06-20T00:31:48.788Z,20.97
2019-06-20T00:32:53.121Z,24.97
2019-06-20T00:33:58.079Z,23.17
2019-06-20T00:35:02.420Z,24.03
2019-06-20T00:36:07.480Z,26.33
2019-06-20T00:37:11.869Z,25.50
2019-06-20T00:38:16.764Z,22.43
2019-06-20T00:39:21.091Z,27.17
2019-06-20T00:40:26.101Z,22.90
2019-06-20T00:41:30.571Z,25.83
2019-06-20T00:42:35.604Z,25.60
2019-06-20T00:43:39.980Z,24.40
2019-06-20T00:44:44.972Z,24.73
2019-06-20T00:45:49.276Z,23.40
2019-06-20T00:46:54.357Z,21.17
2019-06-20T00:47:58.740Z,21.00
2019-06-20T00:49:03.685Z,24.50
2019-06-20T00:50:08.496Z,23.20
2019-06-20T00:51:13.480Z,22.10
2019-06-20T00:52:17.856Z,24.60
2019-06-20T00:53:22.752Z,23.80
2019-06-20T00:54:27.059Z,23.23
2019-06-20T00:55:32.059Z,23.93
2019-06-20T00:56:36.495Z,21.40
2019-06-20T00:57:41.475Z,22.37
2019-06-20T00:58:45.809Z,26.23
2019-06-20T00:59:50.823Z,23.13
2019-06-20T01:00:55.274Z,25.53
2019-06-20T01:02:00.262Z,24.10
2019-06-20T01:03:05.058Z,22.73
2019-06-20T01:04:10.123Z,24.83
2019-06-20T01:05:14.614Z,23.20
2019-06-20T01:06:19.563Z,21.73
2019-06-20T01:07:23.959Z,23.53
2019-06-20T01:08:28.956Z,25.53
2019-06-20T01:09:33.313Z,23.23
2019-06-20T01:10:38.400Z,20.77
2019-06-20T01:11:42.763Z,22.43
2019-06-20T01:12:47.659Z,20.63
2019-06-20T01:13:52.850Z,24.13
2019-06-20T01:14:58.121Z,21.20
2019-06-20T01:16:02.693Z,25.63
2019-06-20T01:17:07.671Z,22.80
2019-06-20T01:18:12.131Z,23.37
2019-06-20T01:19:17.017Z,24.57
2019-06-20T01:20:21.968Z,23.53
2019-06-20T01:21:26.878Z,29.50
2019-06-20T01:22:31.270Z,22.80
2019-06-20T01:23:36.195Z,23.47
2019-06-20T01:24:40.613Z,23.43
2019-06-20T01:25:45.951Z,24.63
2019-06-20T01:26:50.306Z,25.10
2019-06-20T01:27:55.194Z,26.80
2019-06-20T01:28:59.512Z,25.10
2019-06-20T01:30:06.391Z,22.43
2019-06-20T01:31:10.708Z,22.60
2019-06-20T01:32:15.572Z,25.20
2019-06-20T01:33:20.111Z,24.07
2019-06-20T01:34:25.060Z,29.17
2019-06-20T01:35:29.422Z,24.73
2019-06-20T01:36:34.313Z,26.87
2019-06-20T01:37:38.702Z,26.27
2019-06-20T01:38:43.573Z,26.57
2019-06-20T01:39:47.883Z,26.40
2019-06-20T01:40:52.770Z,30.30
2019-06-20T01:41:57.286Z,26.77
2019-06-20T01:43:02.271Z,27.83
2019-06-20T01:44:06.654Z,30.40
2019-06-20T01:45:11.609Z,27.77
2019-06-20T01:46:15.993Z,27.50
2019-06-20T01:47:22.940Z,29.07
2019-06-20T01:48:27.254Z,29.47
2019-06-20T01:49:32.156Z,29.93
2019-06-20T01:50:36.885Z,31.93
2019-06-20T01:51:41.894Z,29.10
2019-06-20T01:52:46.180Z,31.37
2019-06-20T01:53:51.048Z,32.13
2019-06-20T01:54:55.369Z,34.30
2019-06-20T01:56:00.276Z,32.30
2019-06-20T01:57:04.692Z,31.27
2019-06-20T01:58:09.647Z,32.10
2019-06-20T01:59:13.963Z,37.53
2019-06-20T02:00:36.116Z,38.30
2019-06-20T02:01:40.437Z,38.13
2019-06-20T02:02:45.422Z,32.83
2019-06-20T02:03:49.826Z,30.90
2019-06-20T02:04:54.779Z,34.30
2019-06-20T02:05:59.075Z,35.77
2019-06-20T02:07:04.122Z,38.50
2019-06-20T02:08:08.512Z,38.00
2019-06-20T02:09:13.389Z,37.10
2019-06-20T02:10:17.847Z,38.97
2019-06-20T02:11:22.792Z,34.77
2019-06-20T02:12:27.168Z,35.00
2019-06-20T02:13:32.120Z,39.70
2019-06-20T02:14:36.468Z,43.37
2019-06-20T02:15:41.476Z,41.13
2019-06-20T02:16:45.784Z,38.10
2019-06-20T02:17:50.728Z,41.00
2019-06-20T02:18:55.019Z,40.03
2019-06-20T02:19:59.892Z,35.87
2019-06-20T02:21:05.541Z,42.00
2019-06-20T02:22:10.420Z,38.97
2019-06-20T02:23:14.742Z,37.63
2019-06-20T02:24:19.630Z,40.60
2019-06-20T02:25:24.090Z,40.77
2019-06-20T02:26:29.738Z,38.67
2019-06-20T02:27:34.046Z,34.43
2019-06-20T02:28:38.947Z,36.87
2019-06-20T02:29:43.256Z,43.20
2019-06-20T02:30:48.312Z,42.33
2019-06-20T02:31:52.632Z,36.40
2019-06-20T02:32:57.527Z,41.43
2019-06-20T02:34:01.908Z,48.80
2019-06-20T02:35:06.970Z,37.77
2019-06-20T02:36:11.331Z,36.90
2019-06-20T02:37:16.246Z,41.13
2019-06-20T02:38:20.686Z,27.03
2019-06-20T02:39:25.590Z,37.53
2019-06-20T02:40:30.337Z,38.93
2019-06-20T02:41:35.607Z,38.90
2019-06-20T02:42:40.444Z,35.77
2019-06-20T02:43:46.010Z,34.87
2019-06-20T02:44:50.390Z,37.33
2019-06-20T02:45:55.434Z,34.17
2019-06-20T02:46:59.741Z,29.93
2019-06-20T02:48:05.316Z,30.30
2019-06-20T02:49:09.635Z,37.40
2019-06-20T02:50:15.628Z,30.13
2019-06-20T02:51:23.672Z,27.37
2019-06-20T02:52:28.654Z,27.33
2019-06-20T02:53:32.978Z,23.30
2019-06-20T02:54:38.012Z,24.40
2019-06-20T02:55:42.502Z,24.83
2019-06-20T02:56:47.483Z,21.23
2019-06-20T02:57:51.787Z,22.97
2019-06-20T02:58:56.720Z,23.20
2019-06-20T03:00:01.144Z,23.23
2019-06-20T03:01:06.192Z,23.60
2019-06-20T03:02:10.475Z,23.57
2019-06-20T03:03:15.375Z,19.23
2019-06-20T03:04:19.755Z,17.27
2019-06-20T03:05:24.639Z,18.13
2019-06-20T03:06:29.000Z,17.00
2019-06-20T03:07:33.894Z,18.00
2019-06-20T03:08:38.269Z,16.43
2019-06-20T03:09:43.297Z,15.87
2019-06-20T03:10:47.691Z,19.17
2019-06-20T03:11:52.646Z,17.83
2019-06-20T03:12:57.032Z,17.40
2019-06-20T03:14:01.952Z,16.83
2019-06-20T03:15:07.370Z,16.13
2019-06-20T03:16:12.256Z,16.17
2019-06-20T03:17:16.555Z,18.67
2019-06-20T03:18:21.465Z,18.50
2019-06-20T03:19:25.768Z,15.37
2019-06-20T03:20:30.656Z,16.37
2019-06-20T03:21:34.982Z,16.33
2019-06-20T03:22:39.984Z,14.60
2019-06-20T03:23:44.375Z,15.57
2019-06-20T03:24:49.337Z,16.97
2019-06-20T03:25:53.756Z,16.10
2019-06-20T03:26:58.640Z,16.80
2019-06-20T03:28:03.094Z,17.53
2019-06-20T03:29:08.069Z,14.73
2019-06-20T03:30:13.131Z,15.77
2019-06-20T03:31:18.040Z,12.73
2019-06-20T03:32:22.411Z,15.07
2019-06-20T03:33:27.321Z,15.47
2019-06-20T03:34:31.707Z,14.73
2019-06-20T03:35:36.643Z,17.73
2019-06-20T03:36:44.061Z,16.90
2019-06-20T03:37:50.321Z,18.20
2019-06-20T03:38:54.928Z,16.30
2019-06-20T03:39:59.979Z,13.97
2019-06-20T03:41:04.349Z,15.20
2019-06-20T03:42:09.273Z,16.00
2019-06-20T03:43:13.632Z,16.50
2019-06-20T03:44:18.571Z,18.47
2019-06-20T03:45:23.001Z,15.63
2019-06-20T03:46:27.917Z,15.27
2019-06-20T03:47:32.294Z,19.23
2019-06-20T03:48:37.182Z,23.23
2019-06-20T03:49:41.524Z,16.60
2019-06-20T03:50:46.551Z,16.70
2019-06-20T03:51:51.753Z,16.47
2019-06-20T03:53:03.001Z,21.00
2019-06-20T03:54:07.315Z,22.07
2019-06-20T03:55:12.778Z,19.57
2019-06-20T03:56:20.737Z,17.40
2019-06-20T03:57:25.726Z,19.23
2019-06-20T03:58:30.139Z,19.57
2019-06-20T03:59:35.209Z,19.40
2019-06-20T04:00:39.663Z,20.00
2019-06-20T04:01:44.650Z,19.07
2019-06-20T04:02:48.966Z,18.73
2019-06-20T04:03:53.984Z,18.63
2019-06-20T04:04:58.359Z,21.50
2019-06-20T04:06:03.295Z,19.37
2019-06-20T04:07:07.594Z,21.97
2019-06-20T04:08:12.557Z,22.57
2019-06-20T04:09:17.061Z,20.10
2019-06-20T04:10:22.031Z,19.13
2019-06-20T04:11:26.335Z,22.33
2019-06-20T04:12:31.269Z,20.83
2019-06-20T04:13:35.636Z,16.20
2019-06-20T04:14:40.530Z,22.03
2019-06-20T04:15:44.916Z,19.87
2019-06-20T04:16:49.802Z,19.50
2019-06-20T04:17:54.107Z,16.97
2019-06-20T04:18:59.179Z,17.00
2019-06-20T04:20:03.936Z,15.63
2019-06-20T04:21:08.807Z,18.10
2019-06-20T04:22:13.111Z,17.53
2019-06-20T04:23:18.074Z,16.43
2019-06-20T04:24:22.436Z,17.53
2019-06-20T04:25:27.485Z,19.07
2019-06-20T04:26:31.853Z,20.13
2019-06-20T04:27:36.742Z,17.77
2019-06-20T04:28:41.047Z,16.60
2019-06-20T04:29:46.006Z,19.37
2019-06-20T04:30:50.357Z,16.77
2019-06-20T04:31:55.309Z,18.07
2019-06-20T04:32:59.777Z,18.20
2019-06-20T04:34:04.757Z,16.63
2019-06-20T04:35:09.523Z,16.80
2019-06-20T04:36:14.410Z,19.37
2019-06-20T04:37:18.848Z,19.30
2019-06-20T04:38:23.723Z,20.17
2019-06-20T04:39:28.056Z,16.97
2019-06-20T04:40:32.974Z,19.67
2019-06-20T04:41:37.283Z,18.40
2019-06-20T04:42:42.301Z,18.63
2019-06-20T04:43:47.294Z,18.40
2019-06-20T04:44:54.065Z,16.70
2019-06-20T04:46:13.284Z,20.10
2019-06-20T04:47:18.182Z,17.20
2019-06-20T04:48:22.485Z,18.20
2019-06-20T04:49:27.483Z,18.20
2019-06-20T04:50:31.815Z,18.67
2019-06-20T04:51:36.695Z,18.77
2019-06-20T04:52:40.985Z,19.17
2019-06-20T04:53:46.019Z,18.43
2019-06-20T04:54:50.308Z,20.13
2019-06-20T04:55:55.199Z,17.47
2019-06-20T04:56:59.551Z,17.47
2019-06-20T04:58:04.507Z,15.47
2019-06-20T04:59:08.824Z,17.07
2019-06-20T05:00:13.893Z,19.63
2019-06-20T05:01:18.370Z,18.17
2019-06-20T05:02:34.615Z,18.73
2019-06-20T05:03:38.915Z,22.70
2019-06-20T05:04:43.808Z,17.43
2019-06-20T05:05:48.186Z,19.80
2019-06-20T05:06:57.570Z,18.53
2019-06-20T05:08:01.956Z,18.90
2019-06-20T05:09:08.061Z,18.30
2019-06-20T05:10:12.793Z,17.03
2019-06-20T05:11:17.670Z,18.83
2019-06-20T05:12:21.983Z,17.63
2019-06-20T05:13:26.979Z,19.47
2019-06-20T05:14:31.368Z,16.87
2019-06-20T05:15:51.371Z,22.43
2019-06-20T05:16:42.318Z,19.33
2019-06-20T05:17:47.220Z,19.27
2019-06-20T05:18:51.561Z,19.30
2019-06-20T05:19:56.474Z,21.47
2019-06-20T05:21:00.808Z,19.50
2019-06-20T05:22:05.901Z,18.67
2019-06-20T05:23:10.211Z,17.27
2019-06-20T05:24:15.112Z,19.27
2019-06-20T05:25:19.458Z,18.30
2019-06-20T05:26:24.395Z,19.20
2019-06-20T05:27:28.799Z,18.07
2019-06-20T05:28:33.808Z,16.67
2019-06-20T05:29:38.139Z,16.30
2019-06-20T05:30:43.033Z,20.70
2019-06-20T05:31:47.390Z,22.17
2019-06-20T05:32:52.455Z,16.57
2019-06-20T05:33:57.036Z,19.43
2019-06-20T05:35:03.096Z,17.43
2019-06-20T05:36:07.634Z,17.17
2019-06-20T05:37:12.524Z,17.70
2019-06-20T05:38:16.844Z,20.87
2019-06-20T05:39:21.848Z,18.20
2019-06-20T05:40:26.289Z,15.47
2019-06-20T05:41:31.211Z,19.37
2019-06-20T05:42:35.506Z,18.97
2019-06-20T05:43:40.408Z,20.90
2019-06-20T05:44:44.720Z,18.23
2019-06-20T05:45:49.644Z,17.10
2019-06-20T05:47:08.517Z,19.07
2019-06-20T05:48:00.639Z,19.43
2019-06-20T05:49:05.106Z,22.20
2019-06-20T05:50:10.235Z,21.37
2019-06-20T05:51:14.573Z,18.87
2019-06-20T05:52:19.475Z,19.77
2019-06-20T05:53:23.914Z,21.70
2019-06-20T05:54:28.955Z,22.63
2019-06-20T05:55:33.332Z,20.73
2019-06-20T05:56:38.383Z,23.17
2019-06-20T05:57:42.693Z,23.43
2019-06-20T05:58:47.600Z,22.33
2019-06-20T05:59:51.933Z,23.70
2019-06-20T06:00:56.803Z,27.80
2019-06-20T06:02:01.107Z,27.17
2019-06-20T06:03:07.244Z,26.27
2019-06-20T06:04:11.931Z,26.73
2019-06-20T06:05:17.233Z,27.97
2019-06-20T06:06:21.571Z,26.07
2019-06-20T06:07:26.472Z,25.40
2019-06-20T06:08:30.814Z,26.27
2019-06-20T06:09:35.787Z,25.43
2019-06-20T06:10:41.287Z,28.27
2019-06-20T06:11:46.494Z,27.60
2019-06-20T06:12:50.843Z,27.60
2019-06-20T06:13:56.283Z,26.33
2019-06-20T06:15:01.132Z,28.77
2019-06-20T06:16:06.392Z,28.10
2019-06-20T06:17:10.688Z,28.53
2019-06-20T06:18:15.842Z,30.67
2019-06-20T06:19:20.267Z,29.83
2019-06-20T06:20:25.203Z,29.37
2019-06-20T06:21:29.523Z,29.20
2019-06-20T06:22:34.485Z,29.47
2019-06-20T06:23:38.890Z,29.47
2019-06-20T06:24:43.856Z,29.80
2019-06-20T06:25:48.208Z,28.90
2019-06-20T06:26:53.119Z,30.87
2019-06-20T06:27:57.805Z,31.83
2019-06-20T06:29:02.904Z,32.37
2019-06-20T06:30:08.784Z,31.90
2019-06-20T06:31:13.750Z,34.77
2019-06-20T06:32:20.186Z,31.60
2019-06-20T06:33:24.659Z,34.17
2019-06-20T06:34:29.257Z,35.43
2019-06-20T06:35:34.294Z,33.20
2019-06-20T06:36:38.762Z,34.57
2019-06-20T06:37:43.911Z,37.70
2019-06-20T06:38:48.498Z,37.53
2019-06-20T06:39:53.666Z,37.47
2019-06-20T06:40:58.031Z,36.73
2019-06-20T06:42:02.923Z,37.80
2019-06-20T06:43:07.224Z,38.87
2019-06-20T06:44:12.228Z,39.03
2019-06-20T06:45:17.016Z,40.00
2019-06-20T06:46:22.054Z,40.97
2019-06-20T06:47:26.489Z,44.40
2019-06-20T06:48:31.455Z,44.67
2019-06-20T06:49:35.769Z,47.53
2019-06-20T06:50:40.914Z,43.67
2019-06-20T06:51:45.316Z,51.93
2019-06-20T06:52:50.295Z,50.43
2019-06-20T06:53:54.704Z,49.17
2019-06-20T06:54:59.648Z,50.93
2019-06-20T06:56:04.151Z,50.50
2019-06-20T06:57:09.058Z,52.60
2019-06-20T06:58:13.425Z,52.17
2019-06-20T06:59:18.471Z,53.60
2019-06-20T07:00:23.287Z,53.80
2019-06-20T07:01:28.228Z,52.63
2019-06-20T07:02:32.558Z,55.80
2019-06-20T07:03:37.507Z,56.23
2019-06-20T07:04:43.094Z,53.33
2019-06-20T07:05:48.061Z,54.00
2019-06-20T07:06:52.456Z,57.87
2019-06-20T07:07:57.404Z,58.23
2019-06-20T07:09:01.813Z,60.10
2019-06-20T07:10:07.691Z,62.00
2019-06-20T07:11:12.088Z,54.37
2019-06-20T07:12:17.040Z,55.83
2019-06-20T07:13:21.333Z,53.77
2019-06-20T07:14:26.316Z,52.43
2019-06-20T07:15:30.954Z,52.47
2019-06-20T07:16:35.854Z,53.40
2019-06-20T07:17:40.210Z,52.87
2019-06-20T07:18:45.105Z,56.87
2019-06-20T07:19:49.437Z,53.80
2019-06-20T07:20:54.321Z,54.70
2019-06-20T07:21:58.672Z,56.77
2019-06-20T07:23:03.542Z,54.07
2019-06-20T07:24:07.883Z,55.37
2019-06-20T07:25:13.112Z,50.73
2019-06-20T07:26:17.436Z,52.07
2019-06-20T07:27:22.469Z,50.83
2019-06-20T07:28:26.775Z,56.17
2019-06-20T07:29:31.866Z,53.03
2019-06-20T07:30:36.249Z,56.53
2019-06-20T07:31:41.114Z,56.47
2019-06-20T07:32:45.469Z,56.33
2019-06-20T07:33:50.396Z,55.00
2019-06-20T07:34:54.799Z,57.20
2019-06-20T07:35:59.743Z,54.50
2019-06-20T07:37:04.061Z,52.07
2019-06-20T07:38:09.042Z,54.67
2019-06-20T07:39:13.341Z,51.40
2019-06-20T07:40:19.538Z,49.87
2019-06-20T07:41:23.917Z,49.83
2019-06-20T07:42:28.858Z,54.40
2019-06-20T07:43:33.188Z,49.30
2019-06-20T07:44:38.133Z,49.03
2019-06-20T07:45:42.444Z,51.00
2019-06-20T07:46:47.302Z,52.50
2019-06-20T07:47:51.611Z,52.23
2019-06-20T07:48:56.523Z,47.13
2019-06-20T07:50:00.829Z,47.70
2019-06-20T07:51:05.792Z,56.70
2019-06-20T07:52:10.107Z,50.60
2019-06-20T07:53:15.066Z,49.90
2019-06-20T07:54:19.419Z,51.73
2019-06-20T07:55:24.429Z,49.67
2019-06-20T07:56:28.736Z,49.17
2019-06-20T07:57:33.618Z,41.47
2019-06-20T07:58:37.992Z,44.13
2019-06-20T07:59:42.943Z,41.00
2019-06-20T08:00:47.275Z,38.20
2019-06-20T08:01:52.189Z,35.57
2019-06-20T08:02:56.650Z,33.63
2019-06-20T08:04:01.527Z,34.40
2019-06-20T08:05:07.056Z,34.10
2019-06-20T08:06:12.031Z,33.27
2019-06-20T08:07:16.408Z,31.37
2019-06-20T08:08:21.325Z,31.63
2019-06-20T08:09:43.602Z,31.87
2019-06-20T08:10:32.279Z,31.30
2019-06-20T08:11:36.586Z,32.13
2019-06-20T08:12:41.573Z,29.13
2019-06-20T08:13:45.942Z,29.90
2019-06-20T08:14:50.849Z,29.67
2019-06-20T08:15:55.259Z,29.37
2019-06-20T08:17:00.159Z,27.83
2019-06-20T08:18:04.783Z,26.50
2019-06-20T08:19:09.830Z,26.03
2019-06-20T08:20:16.025Z,26.80
2019-06-20T08:21:21.154Z,25.37
2019-06-20T08:22:25.606Z,26.70
2019-06-20T08:23:30.560Z,27.87
2019-06-20T08:24:34.867Z,27.93
2019-06-20T08:25:39.757Z,28.60
2019-06-20T08:26:44.074Z,27.00
2019-06-20T08:27:52.228Z,28.17
2019-06-20T08:29:10.217Z,28.60
2019-06-20T08:30:03.549Z,28.00
2019-06-20T08:31:08.224Z,28.47
2019-06-20T08:32:13.186Z,31.93
2019-06-20T08:33:17.555Z,29.60
2019-06-20T08:34:22.503Z,32.47
2019-06-20T08:35:29.184Z,32.77
2019-06-20T08:36:34.165Z,28.90
2019-06-20T08:37:38.533Z,26.57
2019-06-20T08:38:43.453Z,28.20
2019-06-20T08:39:47.816Z,27.23
2019-06-20T08:40:52.730Z,28.00
2019-06-20T08:41:59.183Z,26.93
2019-06-20T08:43:04.180Z,29.50
2019-06-20T08:44:08.795Z,26.83
2019-06-20T08:45:14.111Z,29.87
2019-06-20T08:46:18.428Z,25.67
2019-06-20T08:47:23.404Z,27.13
2019-06-20T08:48:27.918Z,24.03
2019-06-20T08:49:32.928Z,24.83
2019-06-20T08:50:37.462Z,27.27
2019-06-20T08:51:42.385Z,23.03
2019-06-20T08:52:46.905Z,24.07
2019-06-20T08:53:51.875Z,25.73
2019-06-20T08:54:57.879Z,25.57
2019-06-20T08:56:03.270Z,23.00
2019-06-20T08:57:07.663Z,23.63
2019-06-20T08:58:12.642Z,22.57
2019-06-20T08:59:24.499Z,20.93
2019-06-20T09:00:24.508Z,22.23
2019-06-20T09:01:29.115Z,23.33
2019-06-20T09:02:34.495Z,25.53
2019-06-20T09:03:38.815Z,23.17
2019-06-20T09:04:43.722Z,20.97
2019-06-20T09:05:48.039Z,20.63
2019-06-20T09:06:53.973Z,21.77
2019-06-20T09:09:08.437Z,23.93
2019-06-20T09:10:13.793Z,22.00
2019-06-20T09:11:18.727Z,21.47
2019-06-20T09:12:23.034Z,20.73
2019-06-20T09:13:28.176Z,21.80
2019-06-20T09:14:32.557Z,21.07
2019-06-20T09:15:38.347Z,25.27
2019-06-20T09:16:42.744Z,22.73
2019-06-20T09:17:47.922Z,22.13
2019-06-20T09:18:53.504Z,24.73
2019-06-20T09:20:00.161Z,24.20
2019-06-20T09:21:04.804Z,29.07
2019-06-20T09:22:09.722Z,24.13
2019-06-20T09:23:14.262Z,22.40
2019-06-20T09:24:19.279Z,25.47
2019-06-20T09:25:23.730Z,23.97
2019-06-20T09:26:28.619Z,23.17
2019-06-20T09:27:32.947Z,20.17
2019-06-20T09:28:37.862Z,18.77
2019-06-20T09:29:42.255Z,22.03
2019-06-20T09:30:47.209Z,23.43
2019-06-20T09:31:52.695Z,21.50
2019-06-20T09:32:58.279Z,25.53
2019-06-20T09:34:05.415Z,25.57
2019-06-20T09:35:11.105Z,26.17
2019-06-20T09:36:15.395Z,30.03
2019-06-20T09:37:20.445Z,25.90
2019-06-20T09:38:24.851Z,27.97
2019-06-20T09:39:29.881Z,26.10
2019-06-20T09:40:34.487Z,23.87
2019-06-20T09:41:39.470Z,25.03
2019-06-20T09:42:43.911Z,27.70
2019-06-20T09:43:50.080Z,27.00
2019-06-20T09:44:56.338Z,25.53
2019-06-20T09:46:02.608Z,26.97
2019-06-20T09:47:07.199Z,26.70
2019-06-20T09:48:12.237Z,28.87
2019-06-20T09:49:16.668Z,27.70
2019-06-20T09:50:22.057Z,25.37
2019-06-20T09:51:26.426Z,28.30
2019-06-20T09:52:31.355Z,29.60
2019-06-20T09:53:35.777Z,27.67
2019-06-20T09:54:40.932Z,25.77
2019-06-20T09:55:45.432Z,28.93
2019-06-20T09:56:53.493Z,26.57
2019-06-20T09:57:56.651Z,25.07
2019-06-20T09:59:01.563Z,24.50
2019-06-20T10:00:10.411Z,25.07
2019-06-20T10:01:13.540Z,25.37
2019-06-20T10:02:17.915Z,27.13
2019-06-20T10:03:22.849Z,22.97
2019-06-20T10:04:27.195Z,23.57
2019-06-20T10:05:32.211Z,24.63
2019-06-20T10:06:36.933Z,22.43
2019-06-20T10:07:42.584Z,25.83
2019-06-20T10:08:48.237Z,22.50
2019-06-20T10:09:54.128Z,24.63
2019-06-20T10:10:58.955Z,26.97
2019-06-20T10:12:03.956Z,27.03
2019-06-20T10:13:08.275Z,27.13
2019-06-20T10:14:13.411Z,26.73
2019-06-20T10:15:22.758Z,29.83
2019-06-20T10:16:27.716Z,28.10
2019-06-20T10:17:32.104Z,25.77
2019-06-20T10:18:37.204Z,28.43
2019-06-20T10:19:41.509Z,28.10
2019-06-20T10:20:47.240Z,29.73
2019-06-20T10:21:51.978Z,29.07
2019-06-20T10:22:57.560Z,28.77
2019-06-20T10:24:02.140Z,25.60
2019-06-20T10:25:07.308Z,27.27
2019-06-20T10:26:11.770Z,27.37
2019-06-20T10:27:16.694Z,27.60
2019-06-20T10:28:21.016Z,26.37
2019-06-20T10:29:25.949Z,23.95
2019-06-20T10:30:30.333Z,26.87
2019-06-20T10:31:35.221Z,24.63
2019-06-20T10:32:39.547Z,27.00
2019-06-20T10:33:45.764Z,23.67
2019-06-20T10:34:50.769Z,26.60
2019-06-20T10:35:57.173Z,22.57
2019-06-20T10:37:01.603Z,23.57
2019-06-20T10:38:06.603Z,22.63
2019-06-20T10:39:11.922Z,22.80
2019-06-20T10:40:19.107Z,24.83
2019-06-20T10:41:23.499Z,22.93
2019-06-20T10:42:28.490Z,24.40
2019-06-20T10:43:33.116Z,20.90
2019-06-20T10:44:38.101Z,21.80
2019-06-20T10:45:44.015Z,22.23
2019-06-20T10:46:49.764Z,20.93
2019-06-20T10:47:55.099Z,18.80
2019-06-20T10:49:00.066Z,17.47
2019-06-20T10:50:05.464Z,16.57
2019-06-20T10:51:27.771Z,16.13
2019-06-20T10:52:32.162Z,17.87
2019-06-20T10:53:37.249Z,18.70
2019-06-20T10:54:43.017Z,17.47
2019-06-20T10:55:49.044Z,15.87
2019-06-20T10:56:53.530Z,16.13
2019-06-20T10:57:58.563Z,18.97
2019-06-20T10:59:03.045Z,16.83
2019-06-20T11:00:10.800Z,14.90
2019-06-20T11:01:15.164Z,15.10
2019-06-20T11:02:20.285Z,12.87
2019-06-20T11:03:24.662Z,14.47
2019-06-20T11:04:29.569Z,16.00
2019-06-20T11:05:33.900Z,14.67
2019-06-20T11:06:39.909Z,16.53
2019-06-20T11:07:45.614Z,12.67
2019-06-20T11:08:50.675Z,13.27
2019-06-20T11:09:55.062Z,13.83
2019-06-20T11:11:00.101Z,12.97
2019-06-20T11:12:04.651Z,13.70
2019-06-20T11:13:09.664Z,11.87
2019-06-20T11:14:14.047Z,11.80
2019-06-20T11:15:19.979Z,11.78
2019-06-20T11:16:24.543Z,9.85
2019-06-20T11:17:29.537Z,12.47
2019-06-20T11:18:33.849Z,11.45
2019-06-20T11:19:39.746Z,10.18
2019-06-20T11:20:44.451Z,9.30
2019-06-20T11:21:49.405Z,11.53
2019-06-20T11:22:53.731Z,12.00
2019-06-20T11:23:58.633Z,10.60
2019-06-20T11:25:03.034Z,12.95
2019-06-20T11:26:08.013Z,9.98
2019-06-20T11:27:12.311Z,9.53
2019-06-20T11:28:17.343Z,12.80
2019-06-20T11:29:21.694Z,9.85
2019-06-20T11:30:27.326Z,12.05
2019-06-20T11:31:31.639Z,10.53
2019-06-20T11:32:37.787Z,11.60
2019-06-20T11:33:42.242Z,9.30
2019-06-20T11:34:47.581Z,12.75
2019-06-20T11:35:52.041Z,9.73
2019-06-20T11:36:56.907Z,10.95
2019-06-20T11:38:01.378Z,8.88
2019-06-20T11:39:07.912Z,8.85
2019-06-20T11:40:12.985Z,12.00
2019-06-20T11:41:18.040Z,12.05
2019-06-20T11:42:22.567Z,8.80
2019-06-20T11:43:27.577Z,11.95
2019-06-20T11:44:31.952Z,9.18
2019-06-20T11:45:37.668Z,7.75
2019-06-20T11:46:43.326Z,7.78
2019-06-20T11:47:48.335Z,8.45
2019-06-20T11:48:52.706Z,9.15
2019-06-20T11:49:58.658Z,8.85
2019-06-20T11:51:03.107Z,8.48
2019-06-20T11:52:08.179Z,10.40
2019-06-20T11:53:12.758Z,12.50
2019-06-20T11:54:17.702Z,12.13
2019-06-20T11:55:22.291Z,10.10
2019-06-20T11:56:27.196Z,10.60
2019-06-20T11:57:31.590Z,9.50
2019-06-20T11:58:36.467Z,9.73
2019-06-20T11:59:40.852Z,13.18
2019-06-20T12:01:02.239Z,9.05
2019-06-20T12:01:51.841Z,9.08
2019-06-20T12:02:56.847Z,9.98
2019-06-20T12:04:01.181Z,12.95
2019-06-20T12:05:07.147Z,10.55
2019-06-20T12:06:11.886Z,10.15
2019-06-20T12:07:16.785Z,9.75
2019-06-20T12:08:21.138Z,9.18
2019-06-20T12:09:26.180Z,10.13
2019-06-20T12:10:30.655Z,10.90
2019-06-20T12:11:35.666Z,10.55
2019-06-20T12:12:41.035Z,9.90
2019-06-20T12:13:46.552Z,9.28
2019-06-20T12:14:50.919Z,9.65
2019-06-20T12:15:55.887Z,10.13
2019-06-20T12:17:00.323Z,10.38
2019-06-20T12:18:05.562Z,12.28
2019-06-20T12:19:09.879Z,11.95
2019-06-20T12:20:15.991Z,13.10
2019-06-20T12:21:20.350Z,11.25
2019-06-20T12:22:25.243Z,10.72
2019-06-20T12:23:29.580Z,9.55
2019-06-20T12:24:34.559Z,12.65
2019-06-20T12:25:40.570Z,14.73
2019-06-20T12:26:46.849Z,11.95
2019-06-20T12:27:51.476Z,10.70
2019-06-20T12:28:56.340Z,11.55
2019-06-20T12:30:00.741Z,11.70
2019-06-20T12:31:18.654Z,13.10
2019-06-20T12:32:11.884Z,10.98
2019-06-20T12:33:16.859Z,9.18
2019-06-20T12:34:21.272Z,9.93
2019-06-20T12:35:26.261Z,10.98
2019-06-20T12:36:30.612Z,11.20
2019-06-20T12:37:35.510Z,9.00
2019-06-20T12:38:40.959Z,9.73
2019-06-20T12:39:46.422Z,9.38
2019-06-20T12:40:50.936Z,9.00
2019-06-20T12:41:55.918Z,8.58
2019-06-20T12:43:00.322Z,9.48
2019-06-20T12:44:05.335Z,9.00
2019-06-20T12:45:10.150Z,9.03
2019-06-20T12:46:15.028Z,10.53
2019-06-20T12:47:19.354Z,9.38
2019-06-20T12:48:24.320Z,12.63
2019-06-20T12:49:28.619Z,7.62
2019-06-20T12:50:33.527Z,9.08
2019-06-20T12:51:39.116Z,8.58
2019-06-20T12:52:45.777Z,10.13
2019-06-20T12:53:50.934Z,8.33
2019-06-20T12:54:55.976Z,6.97
2019-06-20T12:56:00.286Z,7.35
2019-06-20T12:57:05.327Z,9.15
2019-06-20T12:58:09.754Z,8.43
2019-06-20T12:59:14.687Z,8.78
2019-06-20T13:00:22.100Z,7.75
2019-06-20T13:01:35.814Z,7.72
2019-06-20T13:02:33.119Z,6.70
2019-06-20T13:03:39.072Z,8.88
2019-06-20T13:04:44.120Z,7.85
2019-06-20T13:05:49.164Z,7.20
2019-06-20T13:06:53.677Z,7.55
2019-06-20T13:07:58.630Z,8.00
2019-06-20T13:09:04.787Z,8.50
2019-06-20T13:10:10.830Z,8.35
2019-06-20T13:11:15.156Z,7.67
2019-06-20T13:12:20.068Z,10.32
2019-06-20T13:13:24.471Z,10.25
2019-06-20T13:14:29.452Z,10.25
2019-06-20T13:15:33.845Z,8.25
2019-06-20T13:16:39.015Z,9.55
2019-06-20T13:17:44.865Z,12.05
2019-06-20T13:18:50.463Z,8.38
2019-06-20T13:19:54.999Z,9.90
2019-06-20T13:20:59.990Z,7.85
2019-06-20T13:22:04.392Z,8.15
2019-06-20T13:23:09.335Z,7.95
2019-06-20T13:24:13.627Z,7.25
2019-06-20T13:25:18.615Z,8.03
2019-06-20T13:26:22.970Z,8.50
2019-06-20T13:27:27.947Z,8.10
2019-06-20T13:28:32.232Z,7.62
2019-06-20T13:29:39.040Z,7.78
2019-06-20T13:30:47.229Z,7.70
2019-06-20T13:32:01.933Z,9.78
2019-06-20T13:32:55.695Z,8.65
2019-06-20T13:34:00.702Z,7.40
2019-06-20T13:35:05.674Z,7.22
2019-06-20T13:36:10.895Z,8.73
2019-06-20T13:37:15.694Z,7.03
2019-06-20T13:38:20.764Z,10.03
2019-06-20T13:39:25.157Z,7.85
2019-06-20T13:40:30.105Z,7.55
2019-06-20T13:41:34.487Z,6.95
2019-06-20T13:42:41.749Z,6.60
2019-06-20T13:43:45.644Z,6.12
2019-06-20T13:44:50.548Z,6.28
2019-06-20T13:45:54.930Z,7.25
2019-06-20T13:46:59.899Z,5.80
2019-06-20T13:48:04.375Z,6.78
2019-06-20T13:49:09.223Z,7.03
2019-06-20T13:50:13.682Z,7.42
2019-06-20T13:51:18.645Z,7.08
2019-06-20T13:52:22.947Z,6.40
2019-06-20T13:53:27.968Z,7.00
2019-06-20T13:54:32.372Z,5.97
2019-06-20T13:55:37.249Z,5.50
2019-06-20T13:56:42.286Z,5.55
2019-06-20T13:57:49.202Z,6.10
2019-06-20T13:58:54.134Z,6.65
2019-06-20T13:59:59.172Z,8.30
2019-06-20T14:01:04.694Z,6.30